• Join FlightAware (Why Join?)
  • Login
  • US Flag 
Rudolph Flight #1: Arrived! 
04:46AM EST


 

Airport Tracker/Info


-or-


 

Live Flight TrackerFlight Track Log ✈ RPA3247 ✈ 02-May-2013 ✈ KDCA - KMSY

Flight Track Log - Related Links

Times and Time Zones

All times are in EDT time to prevent confusion due to time zone crossing. See the RPA3247 flight status page for this flight to view local times or setup timezone preferences in your user account.

Time Position Orientation Groundspeed Altitude Reporting Facility
EDT Latitude Longitude Course Direction KTS MPH feet Rate Location/Type
08:20PM 38.8167 -77.0333 233° Southwest 144 166 1,500  Level Potomac TRACON
08:22PM 38.6737 -77.3669 234° Southwest  Level FlightAware Approximate
08:22PM 38.7208 -77.0764 199° South 197 227 4,300  Level Washington Center
08:23PM 38.6129 -77.4780 247° West  Level FlightAware Approximate
08:23PM 38.7069 -77.1744 260° West 215 247 7,200  Level Washington Center
08:24PM 38.5667 -77.5999 237° Southwest  Level FlightAware Approximate
08:24PM 38.6933 -77.2700 260° West 247 284 10,000  Level Washington Center
08:25PM 38.5042 -77.7096 233° Southwest  Level FlightAware Approximate
08:25PM 38.6750 -77.3761 258° West 284 327 12,200  Level Washington Center
08:26PM 38.6297 -77.4758 240° Southwest 311 358 13,500 1,680 Climbing Washington Center
08:27PM 38.5800 -77.5861 240° Southwest 330 380 15,700 2,160 Climbing Washington Center
08:28PM 38.5197 -77.7014 236° Southwest 352 405 17,800 1,860 Climbing Washington Center
08:29PM 38.4656 -77.8086 237° Southwest 363 418 19,400 1,560 Climbing Washington Center
08:30PM 38.4072 -77.9181 236° Southwest 369 425 21,000 1,560 Climbing Washington Center
08:31PM 38.3486 -78.0328 237° Southwest 374 430 22,600 1,560 Climbing Washington Center
08:32PM 38.2900 -78.1444 236° Southwest 380 437 24,100 1,440 Climbing Washington Center
08:33PM 38.2292 -78.2589 236° Southwest 386 444 25,500 1,260 Climbing Washington Center
08:34PM 38.1703 -78.3756 237° Southwest 391 450 26,700 1,020 Climbing Washington Center
08:35PM 38.1111 -78.4972 238° Southwest 396 456 27,600 900 Climbing Washington Center
08:36PM 38.0681 -78.6275 247° West 396 456 28,500 840 Climbing Washington Center
08:37PM 38.0275 -78.7497 247° West 417 480 29,300 720 Climbing Washington Center
08:38PM 37.9800 -78.8875 246° West 422 486 30,000 300 Climbing Washington Center
08:39PM 37.9344 -79.0225 247° West 428 493 30,000  Level Washington Center
08:40PM 37.8739 -79.1697 243° Southwest 428 493 30,000  Level Washington Center
08:41PM 37.8139 -79.2931 238° Southwest 428 493 30,000  Level Washington Center
08:42PM 37.7514 -79.4161 237° Southwest 428 493 30,000  Level Washington Center
08:43PM 37.6869 -79.5386 236° Southwest 423 487 30,000  Level Washington Center
08:44PM 37.6333 -79.6514 239° Southwest 418 481 30,000  Level Washington Center
08:45PM 37.5639 -79.7864 237° Southwest 423 487 30,000  Level Washington Center
08:46PM 37.5011 -79.9111 238° Southwest 429 494 30,000  Level Washington Center
08:48PM 37.4044 -80.0942 236° Southwest 409 471 30,000  Level Atlanta Center
08:49PM 37.3417 -80.2175 237° Southwest 409 471 30,000  Level Atlanta Center
08:50PM 37.2806 -80.3350 237° Southwest 409 471 30,000  Level Atlanta Center
08:51PM 37.2117 -80.4714 238° Southwest 415 478 30,000  Level Atlanta Center
08:52PM 37.1483 -80.5914 237° Southwest 415 478 30,000  Level Atlanta Center
08:53PM 37.0869 -80.7111 237° Southwest 415 478 30,000  Level Atlanta Center
08:54PM 37.0406 -80.8431 246° West 420 483 30,000  Level Atlanta Center
08:55PM 36.9975 -80.9567 245° Southwest 413 475 30,000  Level Atlanta Center
08:56PM 36.9508 -81.0856 246° West 408 470 30,000  Level Atlanta Center
08:57PM 36.9058 -81.2144 246° West 403 464 30,000  Level Atlanta Center
08:58PM 36.8586 -81.3406 245° Southwest 403 464 30,000  Level Atlanta Center
08:59PM 36.8094 -81.4822 247° West 403 464 30,000  Level Atlanta Center
09:00PM 36.7722 -81.5950 248° West 403 464 30,000  Level Atlanta Center
09:01PM 36.7267 -81.7208 246° West 398 458 30,000  Level Atlanta Center
09:02PM 36.6789 -81.8464 245° Southwest 404 465 30,000  Level Atlanta Center
09:03PM 36.6333 -81.9744 246° West 404 465 30,000  Level Atlanta Center
09:04PM 36.5811 -82.1128 245° Southwest 404 465 30,000  Level Atlanta Center
09:05PM 36.5331 -82.2406 245° Southwest 404 465 30,000  Level Atlanta Center
09:07PM 36.4364 -82.4956 245° Southwest 404 465 30,000  Level Atlanta Center
09:08PM 36.3900 -82.6228 246° West 406 467 30,000  Level Atlanta Center
09:09PM 36.3436 -82.7500 246° West 406 467 30,000  Level Atlanta Center
09:10PM 36.2967 -82.8744 245° Southwest 399 459 30,000  Level Atlanta Center
09:11PM 36.2478 -83.0011 244° Southwest 404 465 30,000  Level Atlanta Center
09:12PM 36.2031 -83.1228 246° West 399 459 30,000  Level Atlanta Center
09:13PM 36.1539 -83.2492 244° Southwest 404 465 30,000  Level Atlanta Center
09:14PM 36.1044 -83.3756 244° Southwest 404 465 30,000  Level Atlanta Center
09:15PM 36.0572 -83.4994 245° Southwest 404 465 30,000  Level Atlanta Center
09:16PM 36.0097 -83.6281 245° Southwest 404 465 30,000  Level Atlanta Center
09:17PM 35.9600 -83.7514 244° Southwest 404 465 30,000  Level Atlanta Center
09:18PM 35.9100 -83.8797 244° Southwest 404 465 30,000  Level Atlanta Center
09:19PM 35.8414 -83.9875 232° Southwest 404 465 30,000  Level Atlanta Center
09:20PM 35.7642 -84.0925 228° Southwest 409 471 30,000  Level Atlanta Center
09:21PM 35.6869 -84.1972 228° Southwest 414 476 30,000  Level Atlanta Center
09:22PM 35.6136 -84.3019 229° Southwest 414 476 30,000  Level Atlanta Center
09:23PM 35.5361 -84.4114 229° Southwest 414 476 30,000  Level Atlanta Center
09:24PM 35.4586 -84.5156 228° Southwest 414 476 30,000  Level Atlanta Center
09:25PM 35.3811 -84.6219 228° Southwest 414 476 30,000  Level Atlanta Center
09:26PM 35.3117 -84.7183 229° Southwest 414 476 30,000  Level Atlanta Center
09:27PM 35.2317 -84.8244 227° Southwest 414 476 30,000  Level Atlanta Center
09:28PM 35.1558 -84.9306 229° Southwest 419 482 30,000  Level Atlanta Center
09:29PM 35.0778 -85.0389 229° Southwest 419 482 30,000  Level Atlanta Center
09:30PM 34.9978 -85.1442 227° Southwest 419 482 30,000  Level Atlanta Center
09:31PM 34.9194 -85.2522 229° Southwest 419 482 30,000  Level Atlanta Center
09:32PM 34.8433 -85.3575 229° Southwest 424 488 30,000  Level Atlanta Center
09:33PM 34.7628 -85.4647 228° Southwest 418 481 30,000  Level Atlanta Center
09:34PM 34.6842 -85.5694 228° Southwest 418 481 30,000  Level Atlanta Center
09:35PM 34.6058 -85.6742 228° Southwest 418 481 30,000  Level Atlanta Center
09:36PM 34.5269 -85.7811 228° Southwest 418 481 30,000  Level Atlanta Center
09:37PM 34.4397 -85.8925 227° Southwest 423 487 30,000  Level Atlanta Center
09:38PM 34.3694 -85.9842 227° Southwest 423 487 30,000  Level Atlanta Center
09:39PM 34.2928 -86.0906 229° Southwest 423 487 30,000  Level Atlanta Center
09:40PM 34.2117 -86.1967 227° Southwest 423 487 30,000  Level Atlanta Center
09:41PM 34.1303 -86.3025 227° Southwest 423 487 30,000  Level Atlanta Center
09:42PM 34.0492 -86.4081 227° Southwest 428 493 30,000  Level Atlanta Center
09:43PM 33.9697 -86.5111 227° Southwest 433 498 30,000  Level Atlanta Center
09:44PM 33.8883 -86.6139 226° Southwest 433 498 30,000  Level Atlanta Center
09:45PM 33.8133 -86.7117 227° Southwest 429 494 30,000  Level Atlanta Center
09:46PM 33.7253 -86.8261 227° Southwest 440 506 30,000  Level Atlanta Center
09:47PM 33.6433 -86.9333 227° Southwest 440 506 30,000  Level Atlanta Center
09:48PM 33.5717 -87.0456 233° Southwest 435 501 30,000  Level Atlanta Center
09:49PM 33.4981 -87.1578 232° Southwest 430 495 30,000  Level Atlanta Center
09:50PM 33.4242 -87.2694 232° Southwest 435 501 30,000  Level Atlanta Center
09:51PM 33.2875 -87.4744 231° Southwest 416 479 30,000  Level Memphis Center
09:52PM 33.2131 -87.5861 231° Southwest 421 484 30,000  Level Memphis Center
09:53PM 33.1381 -87.6953 231° Southwest 428 493 30,000  Level Memphis Center
09:54PM 33.0631 -87.8042 231° Southwest 428 493 30,000  Level Memphis Center
09:55PM 32.9922 -87.9125 232° Southwest 428 493 30,000  Level Memphis Center
09:56PM 32.9211 -88.0186 231° Southwest 423 487 30,000  Level Memphis Center
09:57PM 32.8481 -88.1244 231° Southwest 423 487 30,000  Level Memphis Center
09:58PM 32.7789 -88.2300 232° Southwest 423 487 30,000  Level Memphis Center
09:59PM 32.7056 -88.3353 230° Southwest 423 487 30,000  Level Memphis Center
10:00PM 32.6300 -88.4456 231° Southwest 428 493 30,000  Level Memphis Center
10:01PM 32.5586 -88.5506 231° Southwest 428 493 30,000  Level Memphis Center
10:02PM 32.4847 -88.6531 229° Southwest 428 493 30,000  Level Memphis Center
10:03PM 32.4111 -88.7603 231° Southwest 423 487 30,000  Level Memphis Center
10:04PM 32.3308 -88.8550 225° Southwest 423 487 30,000  Level Memphis Center
10:05PM 32.2422 -88.9400 219° Southwest 415 478 30,000  Level Memphis Center
10:06PM 32.1511 -89.0275 219° Southwest 415 478 30,000  Level Memphis Center
10:07PM 32.0622 -89.1122 219° Southwest 420 483 30,000  Level Memphis Center
10:08PM 31.9733 -89.1992 220° Southwest 420 483 30,000  Level Memphis Center
10:09PM 31.8822 -89.2833 218° Southwest 420 483 30,000 -240 Level Memphis Center
10:11PM 31.7406 -89.4219 220° Southwest 410 472 29,400 -780 Descending Houston Center
10:12PM 31.6517 -89.5058 219° Southwest 411 473 28,000 -1,380 Descending Houston Center
10:13PM 31.5622 -89.5900 219° Southwest 406 467 26,700 -1,440 Descending Houston Center
10:14PM 31.4767 -89.6722 219° Southwest 401 461 25,100 -1,740 Descending Houston Center
10:15PM 31.3769 -89.7678 219° Southwest 389 448 23,200 -1,740 Descending Houston Center
10:16PM 31.2864 -89.8322 211° Southwest 391 450 21,600 -1,620 Descending Houston Center
10:17PM 31.1917 -89.8797 203° Southwest 374 430 20,000 -1,620 Descending Houston Center
10:18PM 31.0981 -89.9258 203° Southwest 367 422 18,400 -1,620 Descending Houston Center
10:19PM 31.0064 -89.9725 204° Southwest 362 417 16,800 -1,620 Descending Houston Center
10:20PM 30.9158 -90.0169 203° Southwest 356 410 15,200 -1,560 Descending Houston Center
10:21PM 30.8294 -90.0597 203° Southwest 343 395 13,700 -1,380 Descending Houston Center
10:22PM 30.7428 -90.1017 203° Southwest 339 390 12,400 -1,440 Descending Houston Center
10:23PM 30.6992 -90.1256 205° Southwest 336 387 11,700 -1,320 Descending Houston Center
10:23PM 30.6589 -90.1439 201° Southwest 333 383 11,100 -660 Descending Houston Center
10:24PM 30.6025 -90.1731 204° Southwest 328 377 11,000 -300 Descending Houston Center
10:24PM 30.5594 -90.1933 202° Southwest 327 376 10,800 -300 Descending Houston Center
10:25PM 30.5200 -90.2103 200° South 318 366 10,700 -840 Descending Houston Center
10:25PM 30.4792 -90.2239 196° South 313 360 10,000 -1,440 Descending Houston Center
10:26PM 30.4478 -90.2372 200° South 288 331 9,400 -1,800 Descending Houston Center
10:26PM 30.4044 -90.2539 198° South 298 343 8,200 -1,920 Descending Houston Center
10:27PM 30.3714 -90.2669 199° South 285 328 7,500 -1,920 Descending Houston Center
10:27PM 30.3289 -90.2839 199° South 292 336 6,300 -1,740 Descending Houston Center
10:29PM 30.2553 -90.3125 199° South 286 329 4,600 -1,380 Descending Houston Center
10:30PM 30.1800 -90.3636 210° Southwest 261 300 3,400 -960 Descending Houston Center
10:31PM 30.1400 -90.4075 224° Southwest 262 302 2,700 -780 Descending Houston Center
10:32PM 30.0867 -90.4633 222° Southwest 202 232 2,000 -360 Descending Houston Center
10:33PM 30.0447 -90.4528 168° South 174 200 2,000  Level Houston Center
10:34PM 30.0267 -90.4081 115° Southeast 154 177 2,000  Level Houston Center